CYUL/YUL METAR and TAF weather

Enter ICAO airport designator
Station Type Date Time Source
CYUL METAR 2019/12/11 17:00 UTC NOAA

CYUL 111700Z 15009KT 30SM FEW030 SCT070 M05/M13 A3016 RMK CF1AC3 CF TR SLP217


Station Type Date Time Source
CYUL Decoded METAR 2019/12/11 17:00 UTC NOAA

Montreal / Pierre Elliot Trudeau International Airport, Que, Canada (CYUL) 45-28N 073-45W 36M
Dec 11, 2019 - 12:00 PM EST / 2019.12.11 1700 UTC
Wind: from the SSE (150 degrees) at 10 MPH (9 KT):0
Visibility: 30 mile(s):0
Sky conditions: partly cloudy
Temperature: 23 F (-5 C)
Windchill: 12 F (-11 C):1
Dew Point: 8 F (-13 C)
Relative Humidity: 53%
Pressure (altimeter): 30.16 in. Hg (1021 hPa)
ob: CYUL 111700Z 15009KT 30SM FEW030 SCT070 M05/M13 A3016 RMK CF1AC3 CF TR SLP217
cycle: 17

Station Type Date Time Source
CYUL TAF 2019/12/11 18:42 UTC NOAA

TAF CYUL 111738Z 1118/1218 15010KT P6SM BKN040
FM111900 20008KT P6SM BKN040
TEMPO 1119/1124 2SM -SHSN OVC015 PROB40 1120/1124 25017G27KT 1/2SM SHSN VV008
FM120000 25020G30KT P6SM BKN040
TEMPO 1200/1205 3SM -SHSN OVC020
FM120500 26015G25KT P6SM FEW040
BECMG 1208/1210 26010KT BKN040
RMK NXT FCST BY 112100Z

Example: see airport list